sensor_id;sensor_type;location;lat;lon;timestamp;temperature;humidity
26262;DHT22;13988;52.446;13.280;2023-12-29T00:01:21;8.00;99.90
26262;DHT22;13988;52.446;13.280;2023-12-29T00:03:47;7.90;99.90
26262;DHT22;13988;52.446;13.280;2023-12-29T00:06:13;8.00;99.90
26262;DHT22;13988;52.446;13.280;2023-12-29T00:08:38;8.00;99.90
26262;DHT22;13988;52.446;13.280;2023-12-29T00:11:04;8.00;99.90
26262;DHT22;13988;52.446;13.280;2023-12-29T00:13:30;7.90;99.90
26262;DHT22;13988;52.446;13.280;2023-12-29T00:15:55;7.90;99.90
26262;DHT22;13988;52.446;13.280;2023-12-29T00:18:21;7.90;99.90
26262;DHT22;13988;52.446;13.280;2023-12-29T00:20:48;7.90;99.90
26262;DHT22;13988;52.446;13.280;2023-12-29T00:23:14;7.90;99.90
26262;DHT22;13988;52.446;13.280;2023-12-29T00:25:40;7.90;99.90
26262;DHT22;13988;52.446;13.280;2023-12-29T00:28:06;8.00;99.90
26262;DHT22;13988;52.446;13.280;2023-12-29T00:30:31;7.90;99.90
26262;DHT22;13988;52.446;13.280;2023-12-29T00:32:57;8.00;99.90
26262;DHT22;13988;52.446;13.280;2023-12-29T00:35:23;8.00;99.90
26262;DHT22;13988;52.446;13.280;2023-12-29T00:37:50;8.00;99.90
26262;DHT22;13988;52.446;13.280;2023-12-29T00:40:16;7.90;99.90
26262;DHT22;13988;52.446;13.280;2023-12-29T00:42:41;7.90;99.90
26262;DHT22;13988;52.446;13.280;2023-12-29T00:45:07;7.90;99.90
26262;DHT22;13988;52.446;13.280;2023-12-29T00:47:33;8.00;99.90
26262;DHT22;13988;52.446;13.280;2023-12-29T00:50:00;8.00;99.90
26262;DHT22;13988;52.446;13.280;2023-12-29T00:52:27;8.00;99.90
26262;DHT22;13988;52.446;13.280;2023-12-29T00:54:52;8.00;99.90
26262;DHT22;13988;52.446;13.280;2023-12-29T00:57:18;8.00;99.90
26262;DHT22;13988;52.446;13.280;2023-12-29T00:59:46;7.90;99.90
26262;DHT22;13988;52.446;13.280;2023-12-29T01:02:12;7.90;99.90
26262;DHT22;13988;52.446;13.280;2023-12-29T01:04:38;8.00;99.90
26262;DHT22;13988;52.446;13.280;2023-12-29T01:07:07;8.00;99.90
26262;DHT22;13988;52.446;13.280;2023-12-29T01:09:37;8.00;99.90
26262;DHT22;13988;52.446;13.280;2023-12-29T01:12:04;8.00;99.90
26262;DHT22;13988;52.446;13.280;2023-12-29T01:14:29;8.00;99.90
26262;DHT22;13988;52.446;13.280;2023-12-29T01:16:55;8.10;99.90
26262;DHT22;13988;52.446;13.280;2023-12-29T01:19:20;8.10;99.90
26262;DHT22;13988;52.446;13.280;2023-12-29T01:21:46;8.10;99.90
26262;DHT22;13988;52.446;13.280;2023-12-29T01:24:12;8.10;99.90
26262;DHT22;13988;52.446;13.280;2023-12-29T01:26:37;8.10;99.90
26262;DHT22;13988;52.446;13.280;2023-12-29T01:29:04;8.10;99.90
26262;DHT22;13988;52.446;13.280;2023-12-29T01:31:30;8.10;99.90
26262;DHT22;13988;52.446;13.280;2023-12-29T01:33:56;8.10;99.90
26262;DHT22;13988;52.446;13.280;2023-12-29T01:36:22;8.20;99.90
26262;DHT22;13988;52.446;13.280;2023-12-29T01:38:47;8.20;99.90
26262;DHT22;13988;52.446;13.280;2023-12-29T01:41:13;8.20;99.90
26262;DHT22;13988;52.446;13.280;2023-12-29T01:44:21;8.20;99.90
26262;DHT22;13988;52.446;13.280;2023-12-29T01:46:51;8.20;99.90
26262;DHT22;13988;52.446;13.280;2023-12-29T01:49:19;8.20;99.90
26262;DHT22;13988;52.446;13.280;2023-12-29T01:51:56;8.10;99.90
26262;DHT22;13988;52.446;13.280;2023-12-29T01:54:24;8.10;99.90
26262;DHT22;13988;52.446;13.280;2023-12-29T01:56:52;8.10;99.90
26262;DHT22;13988;52.446;13.280;2023-12-29T01:59:21;8.20;99.90
26262;DHT22;13988;52.446;13.280;2023-12-29T02:01:47;8.10;99.90
26262;DHT22;13988;52.446;13.280;2023-12-29T02:04:13;8.10;99.90
26262;DHT22;13988;52.446;13.280;2023-12-29T02:06:40;8.20;99.90
26262;DHT22;13988;52.446;13.280;2023-12-29T02:09:05;8.10;99.90
26262;DHT22;13988;52.446;13.280;2023-12-29T02:11:31;8.20;99.90
26262;DHT22;13988;52.446;13.280;2023-12-29T02:13:59;8.10;99.90
26262;DHT22;13988;52.446;13.280;2023-12-29T02:22:05;8.10;99.90
26262;DHT22;13988;52.446;13.280;2023-12-29T02:24:32;8.10;99.90
26262;DHT22;13988;52.446;13.280;2023-12-29T02:29:36;8.20;99.90
26262;DHT22;13988;52.446;13.280;2023-12-29T02:32:06;8.20;99.90
26262;DHT22;13988;52.446;13.280;2023-12-29T02:34:36;8.20;99.90
26262;DHT22;13988;52.446;13.280;2023-12-29T02:37:04;8.20;99.90
26262;DHT22;13988;52.446;13.280;2023-12-29T02:39:30;8.20;99.90
26262;DHT22;13988;52.446;13.280;2023-12-29T02:41:56;8.10;99.90
26262;DHT22;13988;52.446;13.280;2023-12-29T02:44:21;8.10;99.90
26262;DHT22;13988;52.446;13.280;2023-12-29T02:46:47;8.20;99.90
26262;DHT22;13988;52.446;13.280;2023-12-29T02:49:13;8.30;99.90
26262;DHT22;13988;52.446;13.280;2023-12-29T02:51:39;8.30;99.90
26262;DHT22;13988;52.446;13.280;2023-12-29T02:54:05;8.20;99.90
26262;DHT22;13988;52.446;13.280;2023-12-29T02:56:33;8.30;99.90
26262;DHT22;13988;52.446;13.280;2023-12-29T02:58:58;8.30;99.90
26262;DHT22;13988;52.446;13.280;2023-12-29T03:01:24;8.40;99.90
26262;DHT22;13988;52.446;13.280;2023-12-29T03:03:49;8.30;99.90
26262;DHT22;13988;52.446;13.280;2023-12-29T03:06:15;8.20;99.90
26262;DHT22;13988;52.446;13.280;2023-12-29T03:08:40;8.30;99.90
26262;DHT22;13988;52.446;13.280;2023-12-29T03:11:06;8.30;99.90
26262;DHT22;13988;52.446;13.280;2023-12-29T03:13:32;8.30;99.90
26262;DHT22;13988;52.446;13.280;2023-12-29T03:15:57;8.20;99.90
26262;DHT22;13988;52.446;13.280;2023-12-29T03:18:23;8.20;99.90
26262;DHT22;13988;52.446;13.280;2023-12-29T03:20:48;8.20;99.90
26262;DHT22;13988;52.446;13.280;2023-12-29T03:23:14;8.30;99.90
26262;DHT22;13988;52.446;13.280;2023-12-29T03:25:40;8.20;99.90
26262;DHT22;13988;52.446;13.280;2023-12-29T03:28:05;8.20;99.90
26262;DHT22;13988;52.446;13.280;2023-12-29T03:30:31;8.30;99.90
26262;DHT22;13988;52.446;13.280;2023-12-29T03:32:57;8.30;99.90
26262;DHT22;13988;52.446;13.280;2023-12-29T03:35:22;8.30;99.90
26262;DHT22;13988;52.446;13.280;2023-12-29T03:37:48;8.30;99.90
26262;DHT22;13988;52.446;13.280;2023-12-29T03:40:14;8.40;99.90
26262;DHT22;13988;52.446;13.280;2023-12-29T03:42:41;8.30;99.90
26262;DHT22;13988;52.446;13.280;2023-12-29T03:45:06;8.40;99.90
26262;DHT22;13988;52.446;13.280;2023-12-29T03:47:32;8.40;99.90
26262;DHT22;13988;52.446;13.280;2023-12-29T03:49:58;8.40;99.90
26262;DHT22;13988;52.446;13.280;2023-12-29T03:52:23;8.30;99.90
26262;DHT22;13988;52.446;13.280;2023-12-29T03:54:49;8.30;99.90
26262;DHT22;13988;52.446;13.280;2023-12-29T03:57:15;8.30;99.90
26262;DHT22;13988;52.446;13.280;2023-12-29T03:59:40;8.40;99.90
26262;DHT22;13988;52.446;13.280;2023-12-29T04:02:06;8.40;99.90
26262;DHT22;13988;52.446;13.280;2023-12-29T04:04:32;8.40;99.90
26262;DHT22;13988;52.446;13.280;2023-12-29T04:06:57;8.40;99.90
26262;DHT22;13988;52.446;13.280;2023-12-29T04:09:23;8.40;99.90
26262;DHT22;13988;52.446;13.280;2023-12-29T04:11:49;8.40;99.90
26262;DHT22;13988;52.446;13.280;2023-12-29T04:14:14;8.40;99.90
26262;DHT22;13988;52.446;13.280;2023-12-29T04:16:40;8.30;99.90
26262;DHT22;13988;52.446;13.280;2023-12-29T04:19:05;8.40;99.90
26262;DHT22;13988;52.446;13.280;2023-12-29T04:21:31;8.40;99.90
26262;DHT22;13988;52.446;13.280;2023-12-29T04:23:57;8.40;99.90
26262;DHT22;13988;52.446;13.280;2023-12-29T04:26:22;8.40;99.90
26262;DHT22;13988;52.446;13.280;2023-12-29T04:28:48;8.50;99.90
26262;DHT22;13988;52.446;13.280;2023-12-29T04:31:14;8.50;99.90
26262;DHT22;13988;52.446;13.280;2023-12-29T04:33:39;8.50;99.90
26262;DHT22;13988;52.446;13.280;2023-12-29T04:36:05;8.50;99.90
26262;DHT22;13988;52.446;13.280;2023-12-29T04:38:31;8.50;99.90
26262;DHT22;13988;52.446;13.280;2023-12-29T04:40:56;8.50;99.90
26262;DHT22;13988;52.446;13.280;2023-12-29T04:43:22;8.60;99.90
26262;DHT22;13988;52.446;13.280;2023-12-29T04:45:48;8.60;99.90
26262;DHT22;13988;52.446;13.280;2023-12-29T04:48:13;8.60;99.90
26262;DHT22;13988;52.446;13.280;2023-12-29T04:50:39;8.70;99.90
26262;DHT22;13988;52.446;13.280;2023-12-29T04:53:04;8.70;99.90
26262;DHT22;13988;52.446;13.280;2023-12-29T04:55:30;8.70;99.90
26262;DHT22;13988;52.446;13.280;2023-12-29T04:57:55;8.70;99.90
26262;DHT22;13988;52.446;13.280;2023-12-29T05:00:21;8.80;99.90
26262;DHT22;13988;52.446;13.280;2023-12-29T05:02:47;8.70;99.90
26262;DHT22;13988;52.446;13.280;2023-12-29T05:05:12;8.70;99.90
26262;DHT22;13988;52.446;13.280;2023-12-29T05:07:38;8.70;99.90
26262;DHT22;13988;52.446;13.280;2023-12-29T05:10:04;8.70;99.90
26262;DHT22;13988;52.446;13.280;2023-12-29T05:12:30;8.80;99.90
26262;DHT22;13988;52.446;13.280;2023-12-29T05:14:55;8.80;99.90
26262;DHT22;13988;52.446;13.280;2023-12-29T05:17:21;8.80;99.90
26262;DHT22;13988;52.446;13.280;2023-12-29T05:19:47;8.70;99.90
26262;DHT22;13988;52.446;13.280;2023-12-29T05:22:12;8.80;99.90
26262;DHT22;13988;52.446;13.280;2023-12-29T05:24:42;8.80;99.90
26262;DHT22;13988;52.446;13.280;2023-12-29T05:27:08;8.70;99.90
26262;DHT22;13988;52.446;13.280;2023-12-29T05:29:33;8.70;99.90
26262;DHT22;13988;52.446;13.280;2023-12-29T05:31:59;8.80;99.90
26262;DHT22;13988;52.446;13.280;2023-12-29T05:34:24;8.90;99.90
26262;DHT22;13988;52.446;13.280;2023-12-29T05:36:50;8.90;99.90
26262;DHT22;13988;52.446;13.280;2023-12-29T05:39:16;8.90;99.90
26262;DHT22;13988;52.446;13.280;2023-12-29T05:41:41;8.90;99.90
26262;DHT22;13988;52.446;13.280;2023-12-29T05:44:07;8.90;99.90
26262;DHT22;13988;52.446;13.280;2023-12-29T05:46:33;8.90;99.90
26262;DHT22;13988;52.446;13.280;2023-12-29T05:48:58;8.90;99.90
26262;DHT22;13988;52.446;13.280;2023-12-29T05:51:24;8.90;99.90
26262;DHT22;13988;52.446;13.280;2023-12-29T05:53:50;8.90;99.90
26262;DHT22;13988;52.446;13.280;2023-12-29T05:56:15;8.80;99.90
26262;DHT22;13988;52.446;13.280;2023-12-29T05:58:41;8.90;99.90
26262;DHT22;13988;52.446;13.280;2023-12-29T06:01:11;8.80;99.90
26262;DHT22;13988;52.446;13.280;2023-12-29T06:03:37;8.70;99.90
26262;DHT22;13988;52.446;13.280;2023-12-29T06:06:03;8.80;99.90
26262;DHT22;13988;52.446;13.280;2023-12-29T06:08:29;8.90;99.90
26262;DHT22;13988;52.446;13.280;2023-12-29T06:10:55;8.90;99.90
26262;DHT22;13988;52.446;13.280;2023-12-29T06:13:20;8.90;99.90
26262;DHT22;13988;52.446;13.280;2023-12-29T06:15:46;8.90;99.90
26262;DHT22;13988;52.446;13.280;2023-12-29T06:18:12;8.90;99.90
26262;DHT22;13988;52.446;13.280;2023-12-29T06:20:37;8.90;99.90
26262;DHT22;13988;52.446;13.280;2023-12-29T06:23:03;8.90;99.90
26262;DHT22;13988;52.446;13.280;2023-12-29T06:25:29;9.10;99.90
26262;DHT22;13988;52.446;13.280;2023-12-29T06:27:55;9.10;99.90
26262;DHT22;13988;52.446;13.280;2023-12-29T06:30:20;9.10;99.90
26262;DHT22;13988;52.446;13.280;2023-12-29T06:32:46;9.10;99.90
26262;DHT22;13988;52.446;13.280;2023-12-29T06:35:12;9.20;99.90
26262;DHT22;13988;52.446;13.280;2023-12-29T06:37:38;9.10;99.90
26262;DHT22;13988;52.446;13.280;2023-12-29T06:40:07;9.10;99.90
26262;DHT22;13988;52.446;13.280;2023-12-29T06:42:33;9.20;99.90
26262;DHT22;13988;52.446;13.280;2023-12-29T06:44:58;9.20;99.90
26262;DHT22;13988;52.446;13.280;2023-12-29T06:47:24;9.30;99.90
26262;DHT22;13988;52.446;13.280;2023-12-29T06:49:50;9.20;99.90
26262;DHT22;13988;52.446;13.280;2023-12-29T06:52:16;9.10;99.90
26262;DHT22;13988;52.446;13.280;2023-12-29T06:54:42;9.20;99.90
26262;DHT22;13988;52.446;13.280;2023-12-29T06:57:07;9.30;99.90
26262;DHT22;13988;52.446;13.280;2023-12-29T06:59:33;9.30;99.90
26262;DHT22;13988;52.446;13.280;2023-12-29T07:01:59;9.30;99.90
26262;DHT22;13988;52.446;13.280;2023-12-29T07:04:25;9.30;99.90
26262;DHT22;13988;52.446;13.280;2023-12-29T07:06:50;9.30;99.90
26262;DHT22;13988;52.446;13.280;2023-12-29T07:09:16;9.30;99.90
26262;DHT22;13988;52.446;13.280;2023-12-29T07:11:41;9.40;99.90
26262;DHT22;13988;52.446;13.280;2023-12-29T07:14:12;9.40;99.90
26262;DHT22;13988;52.446;13.280;2023-12-29T07:16:37;9.40;99.90
26262;DHT22;13988;52.446;13.280;2023-12-29T07:19:03;9.40;99.90
26262;DHT22;13988;52.446;13.280;2023-12-29T07:21:29;9.30;99.90
26262;DHT22;13988;52.446;13.280;2023-12-29T07:23:54;9.30;99.90
26262;DHT22;13988;52.446;13.280;2023-12-29T07:26:20;9.30;99.90
26262;DHT22;13988;52.446;13.280;2023-12-29T07:28:46;9.30;99.90
26262;DHT22;13988;52.446;13.280;2023-12-29T07:31:11;9.30;99.90
26262;DHT22;13988;52.446;13.280;2023-12-29T07:33:37;9.40;99.90
26262;DHT22;13988;52.446;13.280;2023-12-29T07:36:03;9.50;99.90
26262;DHT22;13988;52.446;13.280;2023-12-29T07:38:29;9.40;99.90
26262;DHT22;13988;52.446;13.280;2023-12-29T07:40:55;9.30;99.90
26262;DHT22;13988;52.446;13.280;2023-12-29T07:43:20;9.30;99.90
26262;DHT22;13988;52.446;13.280;2023-12-29T07:45:47;9.40;99.90
26262;DHT22;13988;52.446;13.280;2023-12-29T07:48:12;9.40;99.90
26262;DHT22;13988;52.446;13.280;2023-12-29T07:50:38;9.40;99.90
26262;DHT22;13988;52.446;13.280;2023-12-29T07:53:04;9.30;99.90
26262;DHT22;13988;52.446;13.280;2023-12-29T07:55:31;9.30;99.90
26262;DHT22;13988;52.446;13.280;2023-12-29T07:57:57;9.30;99.90
26262;DHT22;13988;52.446;13.280;2023-12-29T08:00:22;9.20;99.90
26262;DHT22;13988;52.446;13.280;2023-12-29T08:02:49;9.20;99.90
26262;DHT22;13988;52.446;13.280;2023-12-29T08:05:15;9.20;99.90
26262;DHT22;13988;52.446;13.280;2023-12-29T08:07:42;9.20;99.90
26262;DHT22;13988;52.446;13.280;2023-12-29T08:10:09;9.40;99.90
26262;DHT22;13988;52.446;13.280;2023-12-29T08:12:35;9.40;99.90
26262;DHT22;13988;52.446;13.280;2023-12-29T08:15:01;9.50;99.90
26262;DHT22;13988;52.446;13.280;2023-12-29T08:17:28;9.60;99.90
26262;DHT22;13988;52.446;13.280;2023-12-29T08:19:54;9.60;99.90
26262;DHT22;13988;52.446;13.280;2023-12-29T08:22:21;9.60;99.90
26262;DHT22;13988;52.446;13.280;2023-12-29T08:24:46;9.60;99.90
26262;DHT22;13988;52.446;13.280;2023-12-29T08:27:12;9.60;99.90
26262;DHT22;13988;52.446;13.280;2023-12-29T08:29:38;9.60;99.90
26262;DHT22;13988;52.446;13.280;2023-12-29T08:32:04;9.50;99.90
26262;DHT22;13988;52.446;13.280;2023-12-29T08:34:30;9.50;99.90
26262;DHT22;13988;52.446;13.280;2023-12-29T08:36:56;9.50;99.90
26262;DHT22;13988;52.446;13.280;2023-12-29T08:39:22;9.50;99.90
26262;DHT22;13988;52.446;13.280;2023-12-29T08:41:47;9.50;99.90
26262;DHT22;13988;52.446;13.280;2023-12-29T08:44:15;9.50;99.90
26262;DHT22;13988;52.446;13.280;2023-12-29T08:46:41;9.70;99.90
26262;DHT22;13988;52.446;13.280;2023-12-29T08:49:06;9.80;99.90
26262;DHT22;13988;52.446;13.280;2023-12-29T08:51:32;9.80;99.90
26262;DHT22;13988;52.446;13.280;2023-12-29T08:53:58;9.80;99.90
26262;DHT22;13988;52.446;13.280;2023-12-29T08:56:24;9.80;99.90
26262;DHT22;13988;52.446;13.280;2023-12-29T08:58:49;9.80;99.90
26262;DHT22;13988;52.446;13.280;2023-12-29T09:01:15;9.90;99.90
26262;DHT22;13988;52.446;13.280;2023-12-29T09:03:41;9.90;99.90
26262;DHT22;13988;52.446;13.280;2023-12-29T09:06:08;9.80;99.90
26262;DHT22;13988;52.446;13.280;2023-12-29T09:08:34;9.80;99.90
26262;DHT22;13988;52.446;13.280;2023-12-29T09:11:00;9.80;99.90
26262;DHT22;13988;52.446;13.280;2023-12-29T09:13:26;9.90;99.90
26262;DHT22;13988;52.446;13.280;2023-12-29T09:15:53;9.90;99.90
26262;DHT22;13988;52.446;13.280;2023-12-29T09:18:19;10.00;99.90
26262;DHT22;13988;52.446;13.280;2023-12-29T09:20:45;10.00;99.90
26262;DHT22;13988;52.446;13.280;2023-12-29T09:23:10;10.00;99.90
26262;DHT22;13988;52.446;13.280;2023-12-29T09:25:36;10.00;99.90
26262;DHT22;13988;52.446;13.280;2023-12-29T09:28:02;10.00;99.90
26262;DHT22;13988;52.446;13.280;2023-12-29T09:30:28;10.10;99.90
26262;DHT22;13988;52.446;13.280;2023-12-29T09:32:54;10.10;99.90
26262;DHT22;13988;52.446;13.280;2023-12-29T09:35:19;10.10;99.90
26262;DHT22;13988;52.446;13.280;2023-12-29T09:37:47;10.10;99.90
26262;DHT22;13988;52.446;13.280;2023-12-29T09:40:14;10.10;99.90
26262;DHT22;13988;52.446;13.280;2023-12-29T09:42:45;10.10;99.90
26262;DHT22;13988;52.446;13.280;2023-12-29T09:45:12;10.20;99.90
26262;DHT22;13988;52.446;13.280;2023-12-29T09:47:41;10.20;99.90
26262;DHT22;13988;52.446;13.280;2023-12-29T09:50:11;10.30;99.90
26262;DHT22;13988;52.446;13.280;2023-12-29T09:52:39;10.30;99.90
26262;DHT22;13988;52.446;13.280;2023-12-29T09:55:05;10.30;99.90
26262;DHT22;13988;52.446;13.280;2023-12-29T09:57:35;10.30;99.90
26262;DHT22;13988;52.446;13.280;2023-12-29T10:00:03;10.40;99.90
26262;DHT22;13988;52.446;13.280;2023-12-29T10:02:30;10.40;99.90
26262;DHT22;13988;52.446;13.280;2023-12-29T10:04:56;10.50;99.90
26262;DHT22;13988;52.446;13.280;2023-12-29T10:07:24;10.40;99.90
26262;DHT22;13988;52.446;13.280;2023-12-29T10:09:56;10.40;99.90
26262;DHT22;13988;52.446;13.280;2023-12-29T10:12:24;10.50;99.90
26262;DHT22;13988;52.446;13.280;2023-12-29T10:25:34;10.80;99.90
26262;DHT22;13988;52.446;13.280;2023-12-29T10:28:00;10.70;99.90
26262;DHT22;13988;52.446;13.280;2023-12-29T10:30:26;10.70;99.90
26262;DHT22;13988;52.446;13.280;2023-12-29T10:32:52;10.80;99.90
26262;DHT22;13988;52.446;13.280;2023-12-29T10:35:18;10.80;99.90
26262;DHT22;13988;52.446;13.280;2023-12-29T10:37:44;10.80;99.90
26262;DHT22;13988;52.446;13.280;2023-12-29T10:40:17;10.80;99.90
26262;DHT22;13988;52.446;13.280;2023-12-29T10:42:56;10.80;99.90
26262;DHT22;13988;52.446;13.280;2023-12-29T10:45:23;10.90;99.90
26262;DHT22;13988;52.446;13.280;2023-12-29T10:47:50;10.90;99.90
26262;DHT22;13988;52.446;13.280;2023-12-29T10:50:16;10.90;99.90
26262;DHT22;13988;52.446;13.280;2023-12-29T10:52:42;11.00;99.90
26262;DHT22;13988;52.446;13.280;2023-12-29T10:55:11;11.00;99.90
26262;DHT22;13988;52.446;13.280;2023-12-29T10:57:37;11.10;99.90
26262;DHT22;13988;52.446;13.280;2023-12-29T11:00:04;11.10;99.90
26262;DHT22;13988;52.446;13.280;2023-12-29T11:02:31;11.10;99.90
26262;DHT22;13988;52.446;13.280;2023-12-29T11:05:05;11.10;99.90
26262;DHT22;13988;52.446;13.280;2023-12-29T11:07:41;11.20;99.90
26262;DHT22;13988;52.446;13.280;2023-12-29T11:10:08;11.10;99.90
26262;DHT22;13988;52.446;13.280;2023-12-29T11:12:37;11.20;99.90
26262;DHT22;13988;52.446;13.280;2023-12-29T11:15:07;11.10;99.90
26262;DHT22;13988;52.446;13.280;2023-12-29T11:17:34;11.20;99.90
26262;DHT22;13988;52.446;13.280;2023-12-29T11:20:02;11.20;99.90
26262;DHT22;13988;52.446;13.280;2023-12-29T11:22:29;11.10;99.90
26262;DHT22;13988;52.446;13.280;2023-12-29T11:24:56;11.10;99.90
26262;DHT22;13988;52.446;13.280;2023-12-29T11:27:29;11.10;99.90
26262;DHT22;13988;52.446;13.280;2023-12-29T11:30:00;11.10;99.90
26262;DHT22;13988;52.446;13.280;2023-12-29T11:35:23;11.10;99.90
26262;DHT22;13988;52.446;13.280;2023-12-29T11:41:08;11.00;99.90
26262;DHT22;13988;52.446;13.280;2023-12-29T11:43:35;11.00;99.90
26262;DHT22;13988;52.446;13.280;2023-12-29T11:46:01;11.00;99.90
26262;DHT22;13988;52.446;13.280;2023-12-29T11:48:55;11.00;99.90
26262;DHT22;13988;52.446;13.280;2023-12-29T11:51:48;11.10;99.90
26262;DHT22;13988;52.446;13.280;2023-12-29T11:54:24;11.00;99.90
26262;DHT22;13988;52.446;13.280;2023-12-29T11:56:50;11.00;99.90
26262;DHT22;13988;52.446;13.280;2023-12-29T12:01:42;11.00;99.90
26262;DHT22;13988;52.446;13.280;2023-12-29T12:04:37;10.90;99.90
26262;DHT22;13988;52.446;13.280;2023-12-29T12:08:02;11.00;99.90
26262;DHT22;13988;52.446;13.280;2023-12-29T12:12:48;10.90;99.90
26262;DHT22;13988;52.446;13.280;2023-12-29T12:17:57;10.90;99.90
26262;DHT22;13988;52.446;13.280;2023-12-29T12:20:23;10.90;99.90
26262;DHT22;13988;52.446;13.280;2023-12-29T12:23:08;10.80;99.90
26262;DHT22;13988;52.446;13.280;2023-12-29T12:25:35;10.80;99.90
26262;DHT22;13988;52.446;13.280;2023-12-29T12:28:07;10.70;99.90
26262;DHT22;13988;52.446;13.280;2023-12-29T12:30:33;10.70;99.90
26262;DHT22;13988;52.446;13.280;2023-12-29T12:33:03;10.70;99.90
26262;DHT22;13988;52.446;13.280;2023-12-29T12:35:30;10.80;99.90
26262;DHT22;13988;52.446;13.280;2023-12-29T12:38:15;10.70;99.90
26262;DHT22;13988;52.446;13.280;2023-12-29T12:40:47;10.70;99.90
26262;DHT22;13988;52.446;13.280;2023-12-29T12:43:14;10.70;99.90
26262;DHT22;13988;52.446;13.280;2023-12-29T12:45:48;10.70;99.90
26262;DHT22;13988;52.446;13.280;2023-12-29T12:48:36;10.70;99.90
26262;DHT22;13988;52.446;13.280;2023-12-29T12:51:07;10.70;99.90
26262;DHT22;13988;52.446;13.280;2023-12-29T12:53:33;10.60;99.90
26262;DHT22;13988;52.446;13.280;2023-12-29T12:55:59;10.50;99.90
26262;DHT22;13988;52.446;13.280;2023-12-29T12:58:25;10.50;99.90
26262;DHT22;13988;52.446;13.280;2023-12-29T13:00:57;10.50;99.90
26262;DHT22;13988;52.446;13.280;2023-12-29T13:03:22;10.50;99.90
26262;DHT22;13988;52.446;13.280;2023-12-29T13:05:48;10.50;99.90
26262;DHT22;13988;52.446;13.280;2023-12-29T13:08:14;10.50;99.90
26262;DHT22;13988;52.446;13.280;2023-12-29T13:10:41;10.50;99.90
26262;DHT22;13988;52.446;13.280;2023-12-29T13:13:08;10.50;99.90
26262;DHT22;13988;52.446;13.280;2023-12-29T13:15:34;10.50;99.90
26262;DHT22;13988;52.446;13.280;2023-12-29T13:17:59;10.50;99.90
26262;DHT22;13988;52.446;13.280;2023-12-29T13:20:25;10.60;99.90
26262;DHT22;13988;52.446;13.280;2023-12-29T13:22:50;10.60;99.90
26262;DHT22;13988;52.446;13.280;2023-12-29T13:25:21;10.60;99.90
26262;DHT22;13988;52.446;13.280;2023-12-29T13:27:50;10.60;99.90
26262;DHT22;13988;52.446;13.280;2023-12-29T13:30:16;10.70;99.90
26262;DHT22;13988;52.446;13.280;2023-12-29T13:32:44;10.70;99.90
26262;DHT22;13988;52.446;13.280;2023-12-29T13:35:24;10.60;99.90
26262;DHT22;13988;52.446;13.280;2023-12-29T13:38:02;10.60;99.90
26262;DHT22;13988;52.446;13.280;2023-12-29T13:40:38;10.70;99.90
26262;DHT22;13988;52.446;13.280;2023-12-29T13:43:08;10.70;99.90
26262;DHT22;13988;52.446;13.280;2023-12-29T13:45:36;10.70;99.90
26262;DHT22;13988;52.446;13.280;2023-12-29T13:48:04;10.70;99.90
26262;DHT22;13988;52.446;13.280;2023-12-29T13:50:32;10.70;99.90
26262;DHT22;13988;52.446;13.280;2023-12-29T13:52:58;10.70;99.90
26262;DHT22;13988;52.446;13.280;2023-12-29T13:55:24;10.70;99.90
26262;DHT22;13988;52.446;13.280;2023-12-29T13:57:50;10.70;99.90
26262;DHT22;13988;52.446;13.280;2023-12-29T14:00:24;10.70;99.90
26262;DHT22;13988;52.446;13.280;2023-12-29T14:05:31;10.70;99.90
26262;DHT22;13988;52.446;13.280;2023-12-29T14:11:11;10.70;99.90
26262;DHT22;13988;52.446;13.280;2023-12-29T14:13:44;10.70;99.90
26262;DHT22;13988;52.446;13.280;2023-12-29T14:16:09;10.70;99.90
26262;DHT22;13988;52.446;13.280;2023-12-29T14:24:10;10.70;99.90
26262;DHT22;13988;52.446;13.280;2023-12-29T14:26:56;10.80;99.90
26262;DHT22;13988;52.446;13.280;2023-12-29T14:29:25;10.80;99.90
26262;DHT22;13988;52.446;13.280;2023-12-29T14:31:51;10.70;99.90
26262;DHT22;13988;52.446;13.280;2023-12-29T14:34:17;10.70;99.90
26262;DHT22;13988;52.446;13.280;2023-12-29T14:36:43;10.70;99.90
26262;DHT22;13988;52.446;13.280;2023-12-29T14:39:09;10.70;99.90
26262;DHT22;13988;52.446;13.280;2023-12-29T14:41:39;10.80;99.90
26262;DHT22;13988;52.446;13.280;2023-12-29T14:44:04;10.80;99.90
26262;DHT22;13988;52.446;13.280;2023-12-29T14:46:30;10.80;99.90
26262;DHT22;13988;52.446;13.280;2023-12-29T14:48:59;10.80;99.90
26262;DHT22;13988;52.446;13.280;2023-12-29T14:51:24;10.80;99.90
26262;DHT22;13988;52.446;13.280;2023-12-29T14:53:50;10.80;99.90
26262;DHT22;13988;52.446;13.280;2023-12-29T14:56:17;10.70;99.90
26262;DHT22;13988;52.446;13.280;2023-12-29T14:58:43;10.70;99.90
26262;DHT22;13988;52.446;13.280;2023-12-29T15:01:09;10.70;99.90
26262;DHT22;13988;52.446;13.280;2023-12-29T15:03:36;10.70;99.90
26262;DHT22;13988;52.446;13.280;2023-12-29T15:06:02;10.70;99.90
26262;DHT22;13988;52.446;13.280;2023-12-29T15:08:29;10.60;99.90
26262;DHT22;13988;52.446;13.280;2023-12-29T15:11:01;10.60;99.90
26262;DHT22;13988;52.446;13.280;2023-12-29T15:13:28;10.80;99.90
26262;DHT22;13988;52.446;13.280;2023-12-29T15:15:56;10.80;99.90
26262;DHT22;13988;52.446;13.280;2023-12-29T15:18:22;10.70;99.90
26262;DHT22;13988;52.446;13.280;2023-12-29T15:20:48;10.70;99.90
26262;DHT22;13988;52.446;13.280;2023-12-29T15:23:14;10.70;99.90
26262;DHT22;13988;52.446;13.280;2023-12-29T15:25:40;10.70;99.90
26262;DHT22;13988;52.446;13.280;2023-12-29T15:28:07;10.70;99.90
26262;DHT22;13988;52.446;13.280;2023-12-29T15:30:33;10.80;99.90
26262;DHT22;13988;52.446;13.280;2023-12-29T15:32:59;10.80;99.90
26262;DHT22;13988;52.446;13.280;2023-12-29T15:35:24;10.70;99.90
26262;DHT22;13988;52.446;13.280;2023-12-29T15:37:50;10.80;99.90
26262;DHT22;13988;52.446;13.280;2023-12-29T15:40:16;10.80;99.90
26262;DHT22;13988;52.446;13.280;2023-12-29T15:42:41;10.80;99.90
26262;DHT22;13988;52.446;13.280;2023-12-29T15:45:07;10.70;99.90
26262;DHT22;13988;52.446;13.280;2023-12-29T15:47:33;10.70;99.90
26262;DHT22;13988;52.446;13.280;2023-12-29T15:49:59;10.60;99.90
26262;DHT22;13988;52.446;13.280;2023-12-29T15:52:24;10.50;99.90
26262;DHT22;13988;52.446;13.280;2023-12-29T15:54:52;10.40;99.90
26262;DHT22;13988;52.446;13.280;2023-12-29T15:57:18;10.40;99.90
26262;DHT22;13988;52.446;13.280;2023-12-29T15:59:43;10.40;99.90
26262;DHT22;13988;52.446;13.280;2023-12-29T16:02:10;10.40;99.90
26262;DHT22;13988;52.446;13.280;2023-12-29T16:04:36;10.40;99.90
26262;DHT22;13988;52.446;13.280;2023-12-29T16:07:02;10.50;99.90
26262;DHT22;13988;52.446;13.280;2023-12-29T16:09:28;10.40;99.90